sensor_id;sensor_type;location;lat;lon;timestamp;temperature;humidity
3818;DHT22;1924;48.078;11.516;2022-12-19T00:01:01;-3.40;99.90
3818;DHT22;1924;48.078;11.516;2022-12-19T00:03:28;-3.40;99.90
3818;DHT22;1924;48.078;11.516;2022-12-19T00:05:55;-3.50;99.90
3818;DHT22;1924;48.078;11.516;2022-12-19T00:08:22;-3.40;99.90
3818;DHT22;1924;48.078;11.516;2022-12-19T00:10:55;-3.30;99.90
3818;DHT22;1924;48.078;11.516;2022-12-19T00:13:22;-3.10;99.90
3818;DHT22;1924;48.078;11.516;2022-12-19T00:15:49;-3.20;99.90
3818;DHT22;1924;48.078;11.516;2022-12-19T00:18:16;-3.30;99.90
3818;DHT22;1924;48.078;11.516;2022-12-19T00:20:42;-3.30;99.90
3818;DHT22;1924;48.078;11.516;2022-12-19T00:23:09;-3.40;99.90
3818;DHT22;1924;48.078;11.516;2022-12-19T00:25:36;-3.30;99.90
3818;DHT22;1924;48.078;11.516;2022-12-19T00:28:04;-3.20;99.90
3818;DHT22;1924;48.078;11.516;2022-12-19T00:30:31;-3.10;99.90
3818;DHT22;1924;48.078;11.516;2022-12-19T00:32:58;-3.10;99.90
3818;DHT22;1924;48.078;11.516;2022-12-19T00:35:24;-3.20;99.90
3818;DHT22;1924;48.078;11.516;2022-12-19T00:37:51;-3.00;99.90
3818;DHT22;1924;48.078;11.516;2022-12-19T00:40:18;-3.00;99.90
3818;DHT22;1924;48.078;11.516;2022-12-19T00:42:44;-3.10;99.90
3818;DHT22;1924;48.078;11.516;2022-12-19T00:45:13;-3.30;99.90
3818;DHT22;1924;48.078;11.516;2022-12-19T00:47:39;-3.40;99.90
3818;DHT22;1924;48.078;11.516;2022-12-19T00:50:07;-3.30;99.90
3818;DHT22;1924;48.078;11.516;2022-12-19T00:52:37;-3.40;99.90
3818;DHT22;1924;48.078;11.516;2022-12-19T00:55:04;-3.40;99.90
3818;DHT22;1924;48.078;11.516;2022-12-19T00:57:31;-3.50;99.90
3818;DHT22;1924;48.078;11.516;2022-12-19T00:59:57;-3.60;99.90
3818;DHT22;1924;48.078;11.516;2022-12-19T01:02:26;-3.20;99.90
3818;DHT22;1924;48.078;11.516;2022-12-19T01:04:52;-3.10;99.90
3818;DHT22;1924;48.078;11.516;2022-12-19T01:07:19;-3.20;99.90
3818;DHT22;1924;48.078;11.516;2022-12-19T01:09:46;-3.00;99.90
3818;DHT22;1924;48.078;11.516;2022-12-19T01:12:13;-3.10;99.90
3818;DHT22;1924;48.078;11.516;2022-12-19T01:14:57;-3.40;99.90
3818;DHT22;1924;48.078;11.516;2022-12-19T01:17:23;-3.40;99.90
3818;DHT22;1924;48.078;11.516;2022-12-19T01:19:52;-3.30;99.90
3818;DHT22;1924;48.078;11.516;2022-12-19T01:22:18;-3.30;99.90
3818;DHT22;1924;48.078;11.516;2022-12-19T01:24:45;-3.40;99.90
3818;DHT22;1924;48.078;11.516;2022-12-19T01:27:12;-3.40;99.90
3818;DHT22;1924;48.078;11.516;2022-12-19T01:29:39;-3.40;99.90
3818;DHT22;1924;48.078;11.516;2022-12-19T01:32:05;-3.20;99.90
3818;DHT22;1924;48.078;11.516;2022-12-19T01:34:32;-3.00;99.90
3818;DHT22;1924;48.078;11.516;2022-12-19T01:37:00;-3.00;99.90
3818;DHT22;1924;48.078;11.516;2022-12-19T01:39:27;-3.10;99.90
3818;DHT22;1924;48.078;11.516;2022-12-19T01:41:54;-3.20;99.90
3818;DHT22;1924;48.078;11.516;2022-12-19T05:02:38;-2.50;99.90
3818;DHT22;1924;48.078;11.516;2022-12-19T05:05:06;-2.50;99.90
3818;DHT22;1924;48.078;11.516;2022-12-19T05:07:32;-2.70;99.90
3818;DHT22;1924;48.078;11.516;2022-12-19T05:09:59;-2.70;99.90
3818;DHT22;1924;48.078;11.516;2022-12-19T05:12:27;-2.40;99.90
3818;DHT22;1924;48.078;11.516;2022-12-19T05:14:54;-2.30;99.90
3818;DHT22;1924;48.078;11.516;2022-12-19T05:17:22;-2.40;99.90
3818;DHT22;1924;48.078;11.516;2022-12-19T05:19:50;-2.50;99.90
3818;DHT22;1924;48.078;11.516;2022-12-19T05:22:17;-2.40;99.90
3818;DHT22;1924;48.078;11.516;2022-12-19T05:24:44;-2.40;99.90
3818;DHT22;1924;48.078;11.516;2022-12-19T05:27:10;-2.50;99.90
3818;DHT22;1924;48.078;11.516;2022-12-19T05:29:37;-2.40;99.90
3818;DHT22;1924;48.078;11.516;2022-12-19T05:32:04;-2.20;99.90
3818;DHT22;1924;48.078;11.516;2022-12-19T05:34:31;-2.10;99.90
3818;DHT22;1924;48.078;11.516;2022-12-19T05:36:59;-2.20;99.90
3818;DHT22;1924;48.078;11.516;2022-12-19T05:39:27;-2.30;99.90
3818;DHT22;1924;48.078;11.516;2022-12-19T05:41:54;-2.30;99.90
3818;DHT22;1924;48.078;11.516;2022-12-19T05:44:21;-2.40;99.90
3818;DHT22;1924;48.078;11.516;2022-12-19T05:46:48;-2.20;99.90
3818;DHT22;1924;48.078;11.516;2022-12-19T05:49:15;-2.20;99.90
3818;DHT22;1924;48.078;11.516;2022-12-19T05:51:42;-2.30;99.90
3818;DHT22;1924;48.078;11.516;2022-12-19T05:54:10;-2.10;99.90
3818;DHT22;1924;48.078;11.516;2022-12-19T05:56:37;-2.00;99.90
3818;DHT22;1924;48.078;11.516;2022-12-19T05:59:03;-1.90;99.90
3818;DHT22;1924;48.078;11.516;2022-12-19T06:01:30;-1.70;99.90
3818;DHT22;1924;48.078;11.516;2022-12-19T06:03:57;-1.70;99.90
3818;DHT22;1924;48.078;11.516;2022-12-19T06:06:25;-1.80;99.90
3818;DHT22;1924;48.078;11.516;2022-12-19T06:16:39;-1.80;99.90
3818;DHT22;1924;48.078;11.516;2022-12-19T06:19:07;-1.80;99.90
3818;DHT22;1924;48.078;11.516;2022-12-19T06:21:34;-1.80;99.90
3818;DHT22;1924;48.078;11.516;2022-12-19T06:24:01;-1.90;99.90
3818;DHT22;1924;48.078;11.516;2022-12-19T06:29:06;-1.80;99.90
3818;DHT22;1924;48.078;11.516;2022-12-19T06:31:33;-1.80;99.90
3818;DHT22;1924;48.078;11.516;2022-12-19T06:36:37;-1.80;99.90
3818;DHT22;1924;48.078;11.516;2022-12-19T06:59:48;-2.00;99.90
3818;DHT22;1924;48.078;11.516;2022-12-19T07:07:21;-1.70;99.90
3818;DHT22;1924;48.078;11.516;2022-12-19T07:12:24;-1.70;99.90
3818;DHT22;1924;48.078;11.516;2022-12-19T07:14:52;-1.70;99.90
3818;DHT22;1924;48.078;11.516;2022-12-19T07:17:19;-1.60;99.90
3818;DHT22;1924;48.078;11.516;2022-12-19T07:19:47;-1.60;99.90
3818;DHT22;1924;48.078;11.516;2022-12-19T07:22:17;-1.70;99.90
3818;DHT22;1924;48.078;11.516;2022-12-19T07:24:43;-1.60;99.90
3818;DHT22;1924;48.078;11.516;2022-12-19T07:27:11;-1.50;99.90
3818;DHT22;1924;48.078;11.516;2022-12-19T07:29:37;-1.50;99.90
3818;DHT22;1924;48.078;11.516;2022-12-19T07:32:06;-1.50;99.90
3818;DHT22;1924;48.078;11.516;2022-12-19T07:34:32;-1.40;99.90
3818;DHT22;1924;48.078;11.516;2022-12-19T07:36:59;-1.40;99.90
3818;DHT22;1924;48.078;11.516;2022-12-19T07:39:26;-1.30;99.90
3818;DHT22;1924;48.078;11.516;2022-12-19T07:41:53;-1.50;99.90
3818;DHT22;1924;48.078;11.516;2022-12-19T07:44:19;-1.40;99.90
3818;DHT22;1924;48.078;11.516;2022-12-19T07:46:46;-1.30;99.90
3818;DHT22;1924;48.078;11.516;2022-12-19T07:49:14;-1.20;99.90
3818;DHT22;1924;48.078;11.516;2022-12-19T07:51:41;-1.20;99.90
3818;DHT22;1924;48.078;11.516;2022-12-19T07:54:08;-1.20;99.90
3818;DHT22;1924;48.078;11.516;2022-12-19T07:56:35;-1.10;99.90
3818;DHT22;1924;48.078;11.516;2022-12-19T07:59:02;-1.10;99.90
3818;DHT22;1924;48.078;11.516;2022-12-19T08:01:28;-1.20;99.90
3818;DHT22;1924;48.078;11.516;2022-12-19T08:03:55;-1.00;99.90
3818;DHT22;1924;48.078;11.516;2022-12-19T08:06:24;-0.90;99.90
3818;DHT22;1924;48.078;11.516;2022-12-19T08:08:51;-0.90;99.90
3818;DHT22;1924;48.078;11.516;2022-12-19T08:11:19;-0.90;99.90
3818;DHT22;1924;48.078;11.516;2022-12-19T08:13:51;-0.80;99.90
3818;DHT22;1924;48.078;11.516;2022-12-19T08:16:18;-0.70;99.90
3818;DHT22;1924;48.078;11.516;2022-12-19T08:18:45;-0.70;99.90
3818;DHT22;1924;48.078;11.516;2022-12-19T08:21:12;-0.70;99.90
3818;DHT22;1924;48.078;11.516;2022-12-19T08:23:41;-0.60;99.90
3818;DHT22;1924;48.078;11.516;2022-12-19T08:26:10;-0.60;99.90
3818;DHT22;1924;48.078;11.516;2022-12-19T08:28:37;-0.50;99.90
3818;DHT22;1924;48.078;11.516;2022-12-19T08:31:05;-0.50;99.90
3818;DHT22;1924;48.078;11.516;2022-12-19T08:33:32;-0.30;99.90
3818;DHT22;1924;48.078;11.516;2022-12-19T08:36:03;-0.30;99.90
3818;DHT22;1924;48.078;11.516;2022-12-19T08:38:29;-0.10;99.90
3818;DHT22;1924;48.078;11.516;2022-12-19T08:41:00;0.00;99.90
3818;DHT22;1924;48.078;11.516;2022-12-19T08:43:27;0.10;99.90
3818;DHT22;1924;48.078;11.516;2022-12-19T08:45:54;0.20;99.90
3818;DHT22;1924;48.078;11.516;2022-12-19T08:48:21;0.30;99.90
3818;DHT22;1924;48.078;11.516;2022-12-19T08:50:50;0.40;99.90
3818;DHT22;1924;48.078;11.516;2022-12-19T08:53:17;0.40;99.90
3818;DHT22;1924;48.078;11.516;2022-12-19T08:55:44;0.40;99.90
3818;DHT22;1924;48.078;11.516;2022-12-19T08:58:12;0.50;99.90
3818;DHT22;1924;48.078;11.516;2022-12-19T09:00:39;0.50;99.90
3818;DHT22;1924;48.078;11.516;2022-12-19T09:03:05;0.60;99.90
3818;DHT22;1924;48.078;11.516;2022-12-19T09:05:33;0.60;99.90
3818;DHT22;1924;48.078;11.516;2022-12-19T09:08:00;0.70;99.90
3818;DHT22;1924;48.078;11.516;2022-12-19T09:10:27;0.70;99.90
3818;DHT22;1924;48.078;11.516;2022-12-19T09:12:54;0.80;99.90
3818;DHT22;1924;48.078;11.516;2022-12-19T09:15:23;0.80;99.90
3818;DHT22;1924;48.078;11.516;2022-12-19T09:17:50;0.80;99.90
3818;DHT22;1924;48.078;11.516;2022-12-19T09:20:16;0.90;99.90
3818;DHT22;1924;48.078;11.516;2022-12-19T09:22:43;1.00;99.90
3818;DHT22;1924;48.078;11.516;2022-12-19T09:25:10;1.00;99.90
3818;DHT22;1924;48.078;11.516;2022-12-19T09:27:37;1.10;99.90
3818;DHT22;1924;48.078;11.516;2022-12-19T09:30:05;1.10;99.90
3818;DHT22;1924;48.078;11.516;2022-12-19T09:32:33;1.10;99.90
3818;DHT22;1924;48.078;11.516;2022-12-19T09:35:01;1.10;99.90
3818;DHT22;1924;48.078;11.516;2022-12-19T09:37:28;1.20;99.90
3818;DHT22;1924;48.078;11.516;2022-12-19T09:39:54;1.20;99.90
3818;DHT22;1924;48.078;11.516;2022-12-19T09:42:37;1.20;99.90
3818;DHT22;1924;48.078;11.516;2022-12-19T09:45:19;1.20;99.90
3818;DHT22;1924;48.078;11.516;2022-12-19T09:47:55;1.20;99.90
3818;DHT22;1924;48.078;11.516;2022-12-19T09:50:30;1.30;99.90
3818;DHT22;1924;48.078;11.516;2022-12-19T09:53:02;1.40;99.90
3818;DHT22;1924;48.078;11.516;2022-12-19T09:55:33;1.40;99.90
3818;DHT22;1924;48.078;11.516;2022-12-19T09:58:04;1.50;99.90
3818;DHT22;1924;48.078;11.516;2022-12-19T10:00:35;1.50;99.90
3818;DHT22;1924;48.078;11.516;2022-12-19T10:03:11;1.60;99.90
3818;DHT22;1924;48.078;11.516;2022-12-19T10:05:43;1.60;99.90
3818;DHT22;1924;48.078;11.516;2022-12-19T10:08:16;1.60;99.90
3818;DHT22;1924;48.078;11.516;2022-12-19T10:10:53;1.60;99.90
3818;DHT22;1924;48.078;11.516;2022-12-19T10:13:34;1.70;99.90
3818;DHT22;1924;48.078;11.516;2022-12-19T10:16:06;1.70;99.90
3818;DHT22;1924;48.078;11.516;2022-12-19T10:18:44;1.70;99.90
3818;DHT22;1924;48.078;11.516;2022-12-19T10:21:25;1.80;99.90
3818;DHT22;1924;48.078;11.516;2022-12-19T10:24:14;1.80;99.90
3818;DHT22;1924;48.078;11.516;2022-12-19T10:26:50;1.90;99.90
3818;DHT22;1924;48.078;11.516;2022-12-19T10:29:29;1.90;99.90
3818;DHT22;1924;48.078;11.516;2022-12-19T10:32:05;1.90;99.90
3818;DHT22;1924;48.078;11.516;2022-12-19T10:34:37;1.90;99.90
3818;DHT22;1924;48.078;11.516;2022-12-19T10:37:15;2.00;99.90
3818;DHT22;1924;48.078;11.516;2022-12-19T10:39:56;2.00;99.90
3818;DHT22;1924;48.078;11.516;2022-12-19T10:42:33;2.10;99.90
3818;DHT22;1924;48.078;11.516;2022-12-19T10:45:10;2.10;99.90
3818;DHT22;1924;48.078;11.516;2022-12-19T10:47:39;2.10;99.90
3818;DHT22;1924;48.078;11.516;2022-12-19T10:50:11;1.90;99.90
3818;DHT22;1924;48.078;11.516;2022-12-19T10:52:47;2.00;99.90
3818;DHT22;1924;48.078;11.516;2022-12-19T10:55:41;2.10;99.90
3818;DHT22;1924;48.078;11.516;2022-12-19T10:58:20;2.10;99.90
3818;DHT22;1924;48.078;11.516;2022-12-19T11:01:12;2.20;99.90
3818;DHT22;1924;48.078;11.516;2022-12-19T11:03:41;2.30;99.90
3818;DHT22;1924;48.078;11.516;2022-12-19T11:09:24;2.30;99.90
3818;DHT22;1924;48.078;11.516;2022-12-19T11:12:01;2.30;99.90
3818;DHT22;1924;48.078;11.516;2022-12-19T11:14:29;2.40;99.90
3818;DHT22;1924;48.078;11.516;2022-12-19T11:16:57;2.40;99.90
3818;DHT22;1924;48.078;11.516;2022-12-19T11:19:27;2.50;99.90
3818;DHT22;1924;48.078;11.516;2022-12-19T11:21:57;2.50;99.90
3818;DHT22;1924;48.078;11.516;2022-12-19T11:24:29;2.50;99.90
3818;DHT22;1924;48.078;11.516;2022-12-19T11:26:56;2.50;99.90
3818;DHT22;1924;48.078;11.516;2022-12-19T11:29:26;2.50;99.90
3818;DHT22;1924;48.078;11.516;2022-12-19T11:31:56;2.60;99.90
3818;DHT22;1924;48.078;11.516;2022-12-19T11:34:25;2.60;99.90
3818;DHT22;1924;48.078;11.516;2022-12-19T11:36:59;2.60;99.90
3818;DHT22;1924;48.078;11.516;2022-12-19T11:39:38;2.60;99.90
3818;DHT22;1924;48.078;11.516;2022-12-19T11:42:11;2.60;99.90
3818;DHT22;1924;48.078;11.516;2022-12-19T11:44:45;2.70;99.90
3818;DHT22;1924;48.078;11.516;2022-12-19T11:47:23;2.70;99.90
3818;DHT22;1924;48.078;11.516;2022-12-19T11:49:54;2.70;99.90
3818;DHT22;1924;48.078;11.516;2022-12-19T11:52:33;2.70;99.90
3818;DHT22;1924;48.078;11.516;2022-12-19T11:55:06;2.70;99.90
3818;DHT22;1924;48.078;11.516;2022-12-19T11:57:41;2.70;99.90
3818;DHT22;1924;48.078;11.516;2022-12-19T12:00:11;2.80;99.90
3818;DHT22;1924;48.078;11.516;2022-12-19T12:03:01;2.70;99.90
3818;DHT22;1924;48.078;11.516;2022-12-19T12:05:41;2.70;99.90
3818;DHT22;1924;48.078;11.516;2022-12-19T12:08:29;2.80;99.90
3818;DHT22;1924;48.078;11.516;2022-12-19T12:11:01;2.80;99.90
3818;DHT22;1924;48.078;11.516;2022-12-19T12:13:36;2.70;99.90
3818;DHT22;1924;48.078;11.516;2022-12-19T12:16:08;2.80;99.90
3818;DHT22;1924;48.078;11.516;2022-12-19T12:18:49;2.80;99.90
3818;DHT22;1924;48.078;11.516;2022-12-19T12:21:22;2.80;99.90
3818;DHT22;1924;48.078;11.516;2022-12-19T12:23:59;2.80;99.90
3818;DHT22;1924;48.078;11.516;2022-12-19T12:26:32;2.80;99.90
3818;DHT22;1924;48.078;11.516;2022-12-19T12:29:06;2.80;99.90
3818;DHT22;1924;48.078;11.516;2022-12-19T12:34:38;2.90;99.90
3818;DHT22;1924;48.078;11.516;2022-12-19T12:37:16;2.90;99.90
3818;DHT22;1924;48.078;11.516;2022-12-19T12:39:57;2.90;99.90
3818;DHT22;1924;48.078;11.516;2022-12-19T12:42:37;3.00;99.90
3818;DHT22;1924;48.078;11.516;2022-12-19T12:47:46;2.90;99.90
3818;DHT22;1924;48.078;11.516;2022-12-19T12:50:15;2.80;99.90
3818;DHT22;1924;48.078;11.516;2022-12-19T12:52:45;2.80;99.90
3818;DHT22;1924;48.078;11.516;2022-12-19T12:55:18;2.80;99.90
3818;DHT22;1924;48.078;11.516;2022-12-19T12:57:50;2.90;99.90
3818;DHT22;1924;48.078;11.516;2022-12-19T13:00:25;2.80;99.90
3818;DHT22;1924;48.078;11.516;2022-12-19T13:02:55;2.80;99.90
3818;DHT22;1924;48.078;11.516;2022-12-19T13:05:39;2.80;99.90
3818;DHT22;1924;48.078;11.516;2022-12-19T13:08:34;2.80;99.90
3818;DHT22;1924;48.078;11.516;2022-12-19T13:11:04;2.90;99.90
3818;DHT22;1924;48.078;11.516;2022-12-19T13:13:52;2.90;99.90
3818;DHT22;1924;48.078;11.516;2022-12-19T13:16:48;2.90;99.90
3818;DHT22;1924;48.078;11.516;2022-12-19T13:19:17;2.90;99.90
3818;DHT22;1924;48.078;11.516;2022-12-19T13:22:15;2.90;99.90
3818;DHT22;1924;48.078;11.516;2022-12-19T13:24:44;2.90;99.90
3818;DHT22;1924;48.078;11.516;2022-12-19T13:27:30;2.90;99.90
3818;DHT22;1924;48.078;11.516;2022-12-19T13:30:13;2.80;99.90
3818;DHT22;1924;48.078;11.516;2022-12-19T13:33:08;2.80;99.90
3818;DHT22;1924;48.078;11.516;2022-12-19T13:35:36;2.90;99.90
3818;DHT22;1924;48.078;11.516;2022-12-19T13:38:19;2.80;99.90
3818;DHT22;1924;48.078;11.516;2022-12-19T13:40:59;2.80;99.90
3818;DHT22;1924;48.078;11.516;2022-12-19T13:43:30;2.80;99.90
3818;DHT22;1924;48.078;11.516;2022-12-19T13:49:31;2.80;99.90
3818;DHT22;1924;48.078;11.516;2022-12-19T13:51:59;2.80;99.90
3818;DHT22;1924;48.078;11.516;2022-12-19T13:54:27;2.70;99.90
3818;DHT22;1924;48.078;11.516;2022-12-19T13:56:57;2.70;99.90
3818;DHT22;1924;48.078;11.516;2022-12-19T13:59:26;2.70;99.90
3818;DHT22;1924;48.078;11.516;2022-12-19T14:01:54;2.70;99.90
3818;DHT22;1924;48.078;11.516;2022-12-19T14:04:27;2.70;99.90
3818;DHT22;1924;48.078;11.516;2022-12-19T14:06:58;2.70;99.90
3818;DHT22;1924;48.078;11.516;2022-12-19T14:09:29;2.70;99.90
3818;DHT22;1924;48.078;11.516;2022-12-19T14:11:59;2.70;99.90
3818;DHT22;1924;48.078;11.516;2022-12-19T14:14:27;2.60;99.90
3818;DHT22;1924;48.078;11.516;2022-12-19T14:17:16;2.60;99.90
3818;DHT22;1924;48.078;11.516;2022-12-19T14:19:46;2.60;99.90
3818;DHT22;1924;48.078;11.516;2022-12-19T14:22:19;2.50;99.90
3818;DHT22;1924;48.078;11.516;2022-12-19T14:24:53;2.50;99.90
3818;DHT22;1924;48.078;11.516;2022-12-19T14:27:25;2.50;99.90
3818;DHT22;1924;48.078;11.516;2022-12-19T14:29:53;2.40;99.90
3818;DHT22;1924;48.078;11.516;2022-12-19T14:32:21;2.40;99.90
3818;DHT22;1924;48.078;11.516;2022-12-19T14:34:50;2.30;99.90
3818;DHT22;1924;48.078;11.516;2022-12-19T14:37:28;2.30;99.90
3818;DHT22;1924;48.078;11.516;2022-12-19T14:40:00;2.20;99.90
3818;DHT22;1924;48.078;11.516;2022-12-19T14:42:30;2.20;99.90
3818;DHT22;1924;48.078;11.516;2022-12-19T14:45:34;2.20;99.90
3818;DHT22;1924;48.078;11.516;2022-12-19T14:48:22;2.20;99.90
3818;DHT22;1924;48.078;11.516;2022-12-19T14:50:50;2.20;99.90
3818;DHT22;1924;48.078;11.516;2022-12-19T14:53:18;2.10;99.90
3818;DHT22;1924;48.078;11.516;2022-12-19T14:55:45;2.20;99.90
3818;DHT22;1924;48.078;11.516;2022-12-19T14:58:16;2.20;99.90
3818;DHT22;1924;48.078;11.516;2022-12-19T15:00:46;2.10;99.90
3818;DHT22;1924;48.078;11.516;2022-12-19T15:03:24;2.10;99.90
3818;DHT22;1924;48.078;11.516;2022-12-19T15:06:02;2.10;99.90
3818;DHT22;1924;48.078;11.516;2022-12-19T15:08:32;2.10;99.90
3818;DHT22;1924;48.078;11.516;2022-12-19T15:11:02;2.00;99.90
3818;DHT22;1924;48.078;11.516;2022-12-19T15:13:50;2.00;99.90
3818;DHT22;1924;48.078;11.516;2022-12-19T15:16:29;2.00;99.90
3818;DHT22;1924;48.078;11.516;2022-12-19T15:18:58;2.00;99.90
3818;DHT22;1924;48.078;11.516;2022-12-19T15:21:30;2.00;99.90
3818;DHT22;1924;48.078;11.516;2022-12-19T15:23:57;1.90;99.90
3818;DHT22;1924;48.078;11.516;2022-12-19T15:26:27;1.90;99.90
3818;DHT22;1924;48.078;11.516;2022-12-19T15:28:55;1.90;99.90
3818;DHT22;1924;48.078;11.516;2022-12-19T15:31:29;1.90;99.90
3818;DHT22;1924;48.078;11.516;2022-12-19T15:33:59;1.90;99.90
3818;DHT22;1924;48.078;11.516;2022-12-19T15:36:27;1.90;99.90
3818;DHT22;1924;48.078;11.516;2022-12-19T15:38:54;1.90;99.90
3818;DHT22;1924;48.078;11.516;2022-12-19T15:41:22;1.90;99.90
3818;DHT22;1924;48.078;11.516;2022-12-19T15:43:50;1.80;99.90
3818;DHT22;1924;48.078;11.516;2022-12-19T15:46:17;1.70;99.90
3818;DHT22;1924;48.078;11.516;2022-12-19T15:48:46;1.70;99.90
3818;DHT22;1924;48.078;11.516;2022-12-19T15:51:14;1.70;99.90
3818;DHT22;1924;48.078;11.516;2022-12-19T15:53:43;1.70;99.90
3818;DHT22;1924;48.078;11.516;2022-12-19T15:56:22;1.70;99.90
3818;DHT22;1924;48.078;11.516;2022-12-19T15:58:50;1.60;99.90
3818;DHT22;1924;48.078;11.516;2022-12-19T16:01:17;1.70;99.90
3818;DHT22;1924;48.078;11.516;2022-12-19T16:03:44;1.60;99.90
3818;DHT22;1924;48.078;11.516;2022-12-19T16:06:12;1.60;99.90
3818;DHT22;1924;48.078;11.516;2022-12-19T16:08:40;1.60;99.90
3818;DHT22;1924;48.078;11.516;2022-12-19T16:11:16;1.60;99.90
3818;DHT22;1924;48.078;11.516;2022-12-19T16:13:48;1.60;99.90
3818;DHT22;1924;48.078;11.516;2022-12-19T16:16:15;1.60;99.90
3818;DHT22;1924;48.078;11.516;2022-12-19T16:22:14;1.50;99.90
3818;DHT22;1924;48.078;11.516;2022-12-19T16:30:27;1.50;99.90
3818;DHT22;1924;48.078;11.516;2022-12-19T16:32:57;1.50;99.90
3818;DHT22;1924;48.078;11.516;2022-12-19T16:35:26;1.60;99.90
3818;DHT22;1924;48.078;11.516;2022-12-19T16:45:41;1.50;99.90
3818;DHT22;1924;48.078;11.516;2022-12-19T16:48:17;1.50;99.90
3818;DHT22;1924;48.078;11.516;2022-12-19T16:50:44;1.50;99.90
3818;DHT22;1924;48.078;11.516;2022-12-19T16:53:10;1.50;99.90
3818;DHT22;1924;48.078;11.516;2022-12-19T16:55:37;1.50;99.90
3818;DHT22;1924;48.078;11.516;2022-12-19T16:58:05;1.50;99.90
3818;DHT22;1924;48.078;11.516;2022-12-19T17:00:34;1.50;99.90
3818;DHT22;1924;48.078;11.516;2022-12-19T17:03:06;1.50;99.90
3818;DHT22;1924;48.078;11.516;2022-12-19T17:05:34;1.60;99.90
3818;DHT22;1924;48.078;11.516;2022-12-19T17:08:05;1.60;99.90
3818;DHT22;1924;48.078;11.516;2022-12-19T17:18:27;1.60;99.90
3818;DHT22;1924;48.078;11.516;2022-12-19T17:20:54;1.50;99.90
3818;DHT22;1924;48.078;11.516;2022-12-19T17:23:23;1.50;99.90
3818;DHT22;1924;48.078;11.516;2022-12-19T17:25:50;1.50;99.90
3818;DHT22;1924;48.078;11.516;2022-12-19T17:28:18;1.50;99.90
3818;DHT22;1924;48.078;11.516;2022-12-19T17:30:48;1.40;99.90
3818;DHT22;1924;48.078;11.516;2022-12-19T17:33:16;1.40;99.90
3818;DHT22;1924;48.078;11.516;2022-12-19T17:35:45;1.40;99.90
3818;DHT22;1924;48.078;11.516;2022-12-19T17:38:13;1.50;99.90
3818;DHT22;1924;48.078;11.516;2022-12-19T17:40:44;1.50;99.90
3818;DHT22;1924;48.078;11.516;2022-12-19T17:43:11;1.60;99.90
3818;DHT22;1924;48.078;11.516;2022-12-19T17:45:39;1.60;99.90
3818;DHT22;1924;48.078;11.516;2022-12-19T17:48:14;1.70;99.90
3818;DHT22;1924;48.078;11.516;2022-12-19T17:50:44;1.70;99.90
3818;DHT22;1924;48.078;11.516;2022-12-19T17:53:12;1.70;99.90
3818;DHT22;1924;48.078;11.516;2022-12-19T17:55:39;1.80;99.90
3818;DHT22;1924;48.078;11.516;2022-12-19T17:58:08;1.80;99.90
3818;DHT22;1924;48.078;11.516;2022-12-19T18:10:51;1.70;99.90
3818;DHT22;1924;48.078;11.516;2022-12-19T18:23:40;2.00;99.90
3818;DHT22;1924;48.078;11.516;2022-12-19T18:31:22;1.90;99.90
3818;DHT22;1924;48.078;11.516;2022-12-19T18:33:52;1.90;99.90
3818;DHT22;1924;48.078;11.516;2022-12-19T18:36:22;1.80;99.90
3818;DHT22;1924;48.078;11.516;2022-12-19T18:38:50;1.80;99.90
3818;DHT22;1924;48.078;11.516;2022-12-19T18:41:18;1.80;99.90
3818;DHT22;1924;48.078;11.516;2022-12-19T18:43:48;1.80;99.90
3818;DHT22;1924;48.078;11.516;2022-12-19T18:46:18;1.80;99.90
3818;DHT22;1924;48.078;11.516;2022-12-19T18:48:46;1.80;99.90
3818;DHT22;1924;48.078;11.516;2022-12-19T18:51:16;1.80;99.90
3818;DHT22;1924;48.078;11.516;2022-12-19T18:53:43;1.90;99.90
3818;DHT22;1924;48.078;11.516;2022-12-19T18:56:11;2.00;99.90
3818;DHT22;1924;48.078;11.516;2022-12-19T19:01:10;2.10;99.90
3818;DHT22;1924;48.078;11.516;2022-12-19T19:03:51;2.00;99.90
3818;DHT22;1924;48.078;11.516;2022-12-19T19:06:23;1.90;99.90
3818;DHT22;1924;48.078;11.516;2022-12-19T19:08:56;1.90;99.90
3818;DHT22;1924;48.078;11.516;2022-12-19T19:11:26;1.80;99.90
3818;DHT22;1924;48.078;11.516;2022-12-19T19:13:56;1.80;99.90
3818;DHT22;1924;48.078;11.516;2022-12-19T19:16:24;1.90;99.90
3818;DHT22;1924;48.078;11.516;2022-12-19T19:18:54;1.90;99.90
3818;DHT22;1924;48.078;11.516;2022-12-19T19:21:23;1.90;99.90
3818;DHT22;1924;48.078;11.516;2022-12-19T19:23:53;1.90;99.90
3818;DHT22;1924;48.078;11.516;2022-12-19T19:26:21;1.90;99.90
3818;DHT22;1924;48.078;11.516;2022-12-19T19:28:48;1.90;99.90
3818;DHT22;1924;48.078;11.516;2022-12-19T19:31:16;1.90;99.90
3818;DHT22;1924;48.078;11.516;2022-12-19T19:33:47;2.00;99.90
3818;DHT22;1924;48.078;11.516;2022-12-19T19:36:19;1.90;99.90
3818;DHT22;1924;48.078;11.516;2022-12-19T19:41:18;1.90;99.90
3818;DHT22;1924;48.078;11.516;2022-12-19T19:51:22;1.80;99.90
3818;DHT22;1924;48.078;11.516;2022-12-19T19:53:49;1.80;99.90
3818;DHT22;1924;48.078;11.516;2022-12-19T19:56:16;1.90;99.90
3818;DHT22;1924;48.078;11.516;2022-12-19T20:01:12;1.90;99.90
3818;DHT22;1924;48.078;11.516;2022-12-19T20:03:40;1.80;99.90
3818;DHT22;1924;48.078;11.516;2022-12-19T20:06:09;1.90;99.90
3818;DHT22;1924;48.078;11.516;2022-12-19T20:08:37;1.90;99.90
3818;DHT22;1924;48.078;11.516;2022-12-19T20:11:05;1.80;99.90
3818;DHT22;1924;48.078;11.516;2022-12-19T20:16:00;1.80;99.90
3818;DHT22;1924;48.078;11.516;2022-12-19T20:18:27;1.80;99.90
3818;DHT22;1924;48.078;11.516;2022-12-19T20:20:55;1.80;99.90
3818;DHT22;1924;48.078;11.516;2022-12-19T20:23:22;1.70;99.90
3818;DHT22;1924;48.078;11.516;2022-12-19T20:25:52;1.80;99.90
3818;DHT22;1924;48.078;11.516;2022-12-19T20:30:54;1.80;99.90
3818;DHT22;1924;48.078;11.516;2022-12-19T20:33:22;1.80;99.90
3818;DHT22;1924;48.078;11.516;2022-12-19T20:35:49;1.70;99.90
3818;DHT22;1924;48.078;11.516;2022-12-19T20:38:19;1.80;99.90
3818;DHT22;1924;48.078;11.516;2022-12-19T20:40:46;1.70;99.90
3818;DHT22;1924;48.078;11.516;2022-12-19T20:43:15;1.70;99.90
3818;DHT22;1924;48.078;11.516;2022-12-19T20:45:42;1.90;99.90
3818;DHT22;1924;48.078;11.516;2022-12-19T20:48:12;1.80;99.90
3818;DHT22;1924;48.078;11.516;2022-12-19T20:50:40;1.70;99.90
3818;DHT22;1924;48.078;11.516;2022-12-19T20:53:07;1.70;99.90
3818;DHT22;1924;48.078;11.516;2022-12-19T21:01:16;1.80;99.90
3818;DHT22;1924;48.078;11.516;2022-12-19T21:03:44;1.80;99.90
3818;DHT22;1924;48.078;11.516;2022-12-19T21:06:12;1.80;99.90
3818;DHT22;1924;48.078;11.516;2022-12-19T21:08:40;1.90;99.90
3818;DHT22;1924;48.078;11.516;2022-12-19T21:11:08;1.80;99.90
3818;DHT22;1924;48.078;11.516;2022-12-19T21:13:37;1.90;99.90
3818;DHT22;1924;48.078;11.516;2022-12-19T21:16:05;1.80;99.90
3818;DHT22;1924;48.078;11.516;2022-12-19T21:18:36;1.80;99.90
3818;DHT22;1924;48.078;11.516;2022-12-19T21:21:04;1.90;99.90
3818;DHT22;1924;48.078;11.516;2022-12-19T21:23:34;1.80;99.90
3818;DHT22;1924;48.078;11.516;2022-12-19T21:26:02;1.80;99.90
3818;DHT22;1924;48.078;11.516;2022-12-19T21:28:31;1.80;99.90
3818;DHT22;1924;48.078;11.516;2022-12-19T21:30:59;1.80;99.90
3818;DHT22;1924;48.078;11.516;2022-12-19T21:33:27;1.80;99.90
3818;DHT22;1924;48.078;11.516;2022-12-19T21:35:55;1.80;99.90
3818;DHT22;1924;48.078;11.516;2022-12-19T21:38:22;1.80;99.90
3818;DHT22;1924;48.078;11.516;2022-12-19T21:40:49;1.80;99.90
3818;DHT22;1924;48.078;11.516;2022-12-19T21:43:16;1.70;99.90
3818;DHT22;1924;48.078;11.516;2022-12-19T21:45:43;1.70;99.90